JAD weather

Perth Jandakot Airport
Perth, Western Australia, Australia

Public forecast

Using degrees Celsius for public forecast. Weather courtesy of forecast.io.

METAR (pilot weather report)

Retrieved 2018/02/24 23:00 UTC (28 minutes ago):

YPJT 242300Z AUTO 05011KT 9999 // BKN110 24/17 Q1009 RF00.0/000.0

TAF (pilot weather forecast)

Forecast is more than 12 hours old.

Retrieved 2018/02/23 00:00 UTC (2 days ago):

TAF YPJT 232248Z 2400/2418 11017G27KT CAVOK FM240100 10014KT CAVOK FM241400 09017G27KT CAVOK